createdAt,value
2022-08-20T00:00:33.641Z,52.11
2022-08-20T00:01:33.661Z,51.78
2022-08-20T00:02:33.604Z,51.34
2022-08-20T00:03:33.596Z,51.03
2022-08-20T00:04:33.602Z,51.21
2022-08-20T00:05:33.569Z,51.31
2022-08-20T00:06:33.594Z,51.98
2022-08-20T00:07:33.543Z,52.30
2022-08-20T00:08:33.553Z,52.56
2022-08-20T00:09:33.523Z,51.82
2022-08-20T00:10:33.510Z,51.37
2022-08-20T00:11:33.483Z,51.28
2022-08-20T00:12:33.522Z,51.06
2022-08-20T00:13:33.470Z,51.47
2022-08-20T00:14:34.042Z,51.28
2022-08-20T00:15:33.417Z,51.62
2022-08-20T00:16:33.441Z,51.50
2022-08-20T00:17:33.428Z,51.88
2022-08-20T00:18:33.420Z,52.33
2022-08-20T00:19:33.426Z,52.40
2022-08-20T00:20:33.370Z,52.43
2022-08-20T00:21:33.371Z,52.24
2022-08-20T00:22:33.339Z,53.03
2022-08-20T00:23:33.353Z,53.03
2022-08-20T00:24:33.335Z,53.61
2022-08-20T00:25:33.326Z,53.20
2022-08-20T00:26:33.274Z,53.50
2022-08-20T00:27:33.286Z,53.78
2022-08-20T00:28:33.285Z,54.02
2022-08-20T00:29:33.258Z,53.57
2022-08-20T00:30:33.264Z,53.37
2022-08-20T00:31:33.252Z,54.80
2022-08-20T00:32:33.213Z,55.38
2022-08-20T00:33:33.187Z,55.02
2022-08-20T00:34:33.275Z,54.30
2022-08-20T00:35:33.225Z,53.13
2022-08-20T00:36:33.196Z,53.27
2022-08-20T00:37:33.140Z,53.57
2022-08-20T00:38:33.135Z,54.13
2022-08-20T00:39:33.155Z,54.73
2022-08-20T00:40:33.111Z,55.64
2022-08-20T00:41:33.104Z,56.73
2022-08-20T00:42:33.091Z,56.96
2022-08-20T00:43:33.092Z,57.00
2022-08-20T00:44:33.056Z,56.92
2022-08-20T00:45:33.059Z,57.39
2022-08-20T00:46:33.031Z,57.63
2022-08-20T00:47:33.037Z,57.19
2022-08-20T00:48:33.032Z,58.84
2022-08-20T00:49:32.986Z,59.30
2022-08-20T00:50:32.978Z,60.24
2022-08-20T00:51:32.987Z,60.68
2022-08-20T00:52:32.954Z,61.70
2022-08-20T00:53:32.980Z,61.66
2022-08-20T00:54:32.923Z,62.16
2022-08-20T00:55:32.894Z,62.07
2022-08-20T00:56:32.883Z,62.35
2022-08-20T00:57:59.787Z,62.53
2022-08-20T00:58:32.892Z,63.05
2022-08-20T00:59:32.899Z,63.34
2022-08-20T01:00:32.857Z,63.92
2022-08-20T01:01:32.913Z,64.51
2022-08-20T01:02:32.806Z,64.71
2022-08-20T01:03:32.804Z,65.83
2022-08-20T01:04:32.835Z,65.98
2022-08-20T01:05:32.778Z,65.98
2022-08-20T01:06:32.742Z,65.93
2022-08-20T01:07:32.762Z,66.24
2022-08-20T01:08:32.758Z,66.09
2022-08-20T01:09:49.592Z,67.04
2022-08-20T01:10:32.708Z,67.96
2022-08-20T01:11:36.910Z,67.80
2022-08-20T01:12:32.679Z,67.63
2022-08-20T01:13:32.687Z,66.35
2022-08-20T01:14:32.665Z,65.57
2022-08-20T01:15:32.668Z,65.26
2022-08-20T01:16:32.647Z,65.42
2022-08-20T01:17:32.644Z,65.21
2022-08-20T01:18:32.610Z,64.61
2022-08-20T01:19:32.602Z,64.51
2022-08-20T01:20:32.583Z,63.48
2022-08-20T01:21:32.598Z,63.19
2022-08-20T01:22:32.552Z,62.02
2022-08-20T01:23:32.557Z,62.35
2022-08-20T01:24:32.525Z,62.12
2022-08-20T01:25:32.521Z,61.66
2022-08-20T01:26:32.506Z,61.21
2022-08-20T01:27:33.665Z,60.99
2022-08-20T01:28:32.459Z,60.81
2022-08-20T01:29:32.476Z,60.37
2022-08-20T01:30:32.427Z,59.94
2022-08-20T01:31:32.445Z,60.11
2022-08-20T01:32:32.438Z,59.26
2022-08-20T01:33:32.414Z,58.55
2022-08-20T01:34:32.425Z,58.11
2022-08-20T01:35:32.381Z,58.35
2022-08-20T01:36:32.397Z,58.35
2022-08-20T01:37:32.353Z,58.35
2022-08-20T01:38:32.339Z,58.60
2022-08-20T01:39:32.418Z,58.27
2022-08-20T01:40:32.304Z,57.39
2022-08-20T01:41:32.294Z,56.88
2022-08-20T01:42:32.270Z,55.71
2022-08-20T01:43:32.308Z,55.38
2022-08-20T01:44:32.258Z,55.23
2022-08-20T01:45:32.253Z,54.94
2022-08-20T01:46:32.255Z,54.27
2022-08-20T01:47:36.467Z,53.71
2022-08-20T01:48:32.213Z,53.00
2022-08-20T01:49:32.198Z,53.33
2022-08-20T01:50:32.172Z,53.06
2022-08-20T01:51:32.168Z,52.83
2022-08-20T01:52:32.140Z,53.10
2022-08-20T01:53:32.120Z,53.40
2022-08-20T01:54:32.110Z,53.00
2022-08-20T01:55:32.092Z,53.03
2022-08-20T01:56:32.083Z,53.10
2022-08-20T01:57:32.090Z,53.17
2022-08-20T01:58:32.051Z,53.10
2022-08-20T01:59:32.094Z,52.56
2022-08-20T02:00:32.015Z,52.40
2022-08-20T02:01:32.093Z,52.76
2022-08-20T02:02:32.022Z,52.11
2022-08-20T02:03:37.416Z,51.88
2022-08-20T02:04:32.012Z,52.11
2022-08-20T02:05:31.987Z,52.20
2022-08-20T02:06:31.987Z,52.53
2022-08-20T02:07:31.938Z,53.33
2022-08-20T02:08:31.951Z,53.54
2022-08-20T02:09:31.922Z,53.57
2022-08-20T02:10:31.972Z,53.40
2022-08-20T02:11:31.914Z,53.10
2022-08-20T02:12:31.905Z,53.20
2022-08-20T02:13:31.864Z,53.74
2022-08-20T02:14:31.831Z,54.58
2022-08-20T02:15:37.322Z,54.62
2022-08-20T02:16:31.847Z,54.55
2022-08-20T02:17:31.820Z,54.94
2022-08-20T02:18:31.805Z,56.05
2022-08-20T02:19:31.788Z,57.00
2022-08-20T02:20:31.835Z,58.55
2022-08-20T02:21:31.851Z,60.28
2022-08-20T02:22:31.763Z,61.07
2022-08-20T02:23:31.747Z,61.84
2022-08-20T02:24:31.698Z,61.84
2022-08-20T02:25:31.750Z,61.66
2022-08-20T02:26:31.700Z,61.79
2022-08-20T02:27:31.716Z,61.39
2022-08-20T02:28:31.679Z,61.75
2022-08-20T02:29:31.671Z,61.52
2022-08-20T02:30:31.644Z,61.12
2022-08-20T02:31:34.799Z,62.25
2022-08-20T02:32:33.788Z,62.49
2022-08-20T02:33:31.613Z,63.34
2022-08-20T02:34:31.579Z,63.97
2022-08-20T02:35:31.616Z,64.51
2022-08-20T02:36:31.583Z,65.36
2022-08-20T02:37:31.590Z,67.74
2022-08-20T02:38:31.536Z,69.37
2022-08-20T02:39:31.555Z,70.96
2022-08-20T02:40:31.576Z,75.29
2022-08-20T02:41:31.510Z,79.14
2022-08-20T02:42:31.507Z,81.37
2022-08-20T02:43:31.469Z,83.06
2022-08-20T02:44:31.460Z,84.40
2022-08-20T02:45:31.448Z,85.61
2022-08-20T02:46:31.428Z,87.03
2022-08-20T02:47:31.419Z,88.50
2022-08-20T02:48:31.451Z,89.45
2022-08-20T02:49:31.395Z,90.22
2022-08-20T02:50:31.421Z,90.42
2022-08-20T02:51:31.350Z,91.80
2022-08-20T02:52:31.338Z,91.40
2022-08-20T02:53:31.342Z,91.80
2022-08-20T02:54:31.322Z,92.41
2022-08-20T02:55:31.300Z,91.80
2022-08-20T02:56:31.260Z,91.80
2022-08-20T02:57:31.293Z,91.90
2022-08-20T02:58:31.264Z,91.20
2022-08-20T02:59:31.231Z,92.61
2022-08-20T03:00:37.787Z,91.90
2022-08-20T03:01:31.263Z,91.70
2022-08-20T03:02:31.184Z,91.80
2022-08-20T03:03:31.199Z,90.61
2022-08-20T03:04:31.210Z,89.07
2022-08-20T03:05:31.174Z,88.50
2022-08-20T03:06:31.128Z,88.97
2022-08-20T03:07:31.127Z,89.93
2022-08-20T03:08:31.118Z,89.45
2022-08-20T03:09:31.132Z,89.45
2022-08-20T03:10:31.096Z,89.35
2022-08-20T03:11:31.089Z,88.04
2022-08-20T03:12:31.048Z,87.58
2022-08-20T03:13:31.040Z,86.49
2022-08-20T03:14:31.052Z,85.09
2022-08-20T03:15:31.011Z,84.15
2022-08-20T03:16:30.991Z,84.49
2022-08-20T03:17:30.984Z,83.98
2022-08-20T03:18:30.984Z,83.23
2022-08-20T03:19:30.973Z,83.64
2022-08-20T03:20:30.967Z,82.90
2022-08-20T03:21:30.937Z,82.08
2022-08-20T03:22:30.929Z,81.84
2022-08-20T03:23:30.908Z,82.17
2022-08-20T03:24:30.921Z,82.90
2022-08-20T03:25:30.897Z,82.90
2022-08-20T03:26:30.894Z,82.73
2022-08-20T03:27:36.129Z,82.33
2022-08-20T03:28:30.856Z,81.92
2022-08-20T03:29:30.835Z,81.45
2022-08-20T03:30:30.826Z,80.74
2022-08-20T03:31:30.852Z,81.53
2022-08-20T03:32:30.821Z,80.82
2022-08-20T03:33:30.806Z,80.28
2022-08-20T03:34:30.767Z,79.44
2022-08-20T03:35:30.772Z,78.91
2022-08-20T03:36:30.762Z,79.06
2022-08-20T03:37:30.718Z,77.45
2022-08-20T03:38:32.569Z,75.77
2022-08-20T03:39:30.706Z,75.36
2022-08-20T03:40:30.699Z,74.82
2022-08-20T03:41:30.716Z,75.29
2022-08-20T03:42:30.659Z,74.49
2022-08-20T03:43:30.705Z,73.90
2022-08-20T03:44:30.681Z,73.64
2022-08-20T03:45:30.619Z,72.62
2022-08-20T03:46:30.638Z,72.37
2022-08-20T03:47:30.615Z,72.18
2022-08-20T03:48:30.593Z,72.37
2022-08-20T03:49:30.576Z,71.02
2022-08-20T03:50:30.543Z,72.31
2022-08-20T03:51:30.546Z,71.87
2022-08-20T03:52:30.517Z,72.37
2022-08-20T03:53:30.519Z,72.37
2022-08-20T03:54:31.991Z,71.50
2022-08-20T03:55:30.518Z,70.36
2022-08-20T03:56:30.504Z,68.86
2022-08-20T03:57:30.477Z,67.96
2022-08-20T03:58:35.409Z,67.96
2022-08-20T03:59:30.479Z,68.24
2022-08-20T04:00:30.421Z,67.04
2022-08-20T04:01:45.188Z,66.29
2022-08-20T04:02:30.405Z,65.16
2022-08-20T04:03:30.392Z,64.11
2022-08-20T04:04:30.347Z,63.58
2022-08-20T04:05:30.374Z,62.02
2022-08-20T04:06:30.351Z,61.43
2022-08-20T04:07:30.332Z,61.30
2022-08-20T04:08:30.331Z,61.66
2022-08-20T04:09:30.303Z,61.03
2022-08-20T04:10:30.267Z,61.25
2022-08-20T04:11:30.295Z,62.07
2022-08-20T04:12:30.277Z,62.44
2022-08-20T04:13:30.472Z,62.30
2022-08-20T04:14:30.221Z,61.93
2022-08-20T04:15:30.236Z,61.48
2022-08-20T04:16:30.217Z,60.94
2022-08-20T04:17:30.200Z,59.98
2022-08-20T04:18:30.178Z,58.97
2022-08-20T04:19:34.119Z,59.64
2022-08-20T04:20:30.167Z,58.68
2022-08-20T04:21:32.483Z,58.23
2022-08-20T04:22:30.139Z,58.80
2022-08-20T04:23:30.118Z,57.55
2022-08-20T04:24:32.380Z,57.55
2022-08-20T04:25:30.110Z,57.16
2022-08-20T04:26:30.058Z,56.96
2022-08-20T04:27:30.076Z,56.92
2022-08-20T04:28:30.036Z,56.54
2022-08-20T04:29:32.244Z,57.00
2022-08-20T04:30:30.016Z,56.31
2022-08-20T04:31:29.994Z,55.82
2022-08-20T04:32:29.997Z,55.42
2022-08-20T04:33:34.234Z,56.05
2022-08-20T04:34:29.953Z,55.93
2022-08-20T04:35:29.962Z,55.56
2022-08-20T04:36:29.918Z,55.20
2022-08-20T04:37:29.931Z,55.64
2022-08-20T04:38:50.494Z,56.01
2022-08-20T04:39:29.912Z,56.54
2022-08-20T04:40:29.865Z,57.00
2022-08-20T04:41:29.886Z,57.27
2022-08-20T04:42:29.873Z,56.73
2022-08-20T04:43:29.825Z,57.75
2022-08-20T04:44:29.842Z,57.83
2022-08-20T04:45:29.831Z,58.23
2022-08-20T04:46:29.807Z,58.55
2022-08-20T04:47:34.807Z,58.23
2022-08-20T04:48:29.784Z,59.34
2022-08-20T04:49:29.788Z,58.72
2022-08-20T04:50:29.774Z,58.47
2022-08-20T04:51:29.747Z,58.31
2022-08-20T04:52:29.712Z,57.47
2022-08-20T04:53:29.720Z,57.47
2022-08-20T04:54:29.742Z,58.19
2022-08-20T04:55:29.686Z,58.15
2022-08-20T04:56:29.661Z,59.01
2022-08-20T04:57:29.666Z,59.77
2022-08-20T04:58:29.644Z,60.68
2022-08-20T04:59:29.619Z,60.33
2022-08-20T05:00:29.621Z,61.52
2022-08-20T05:01:29.716Z,62.21
2022-08-20T05:02:29.573Z,63.05
2022-08-20T05:03:29.563Z,64.01
2022-08-20T05:04:29.561Z,64.21
2022-08-20T05:05:29.530Z,64.06
2022-08-20T05:06:29.549Z,64.61
2022-08-20T05:07:29.544Z,64.51
2022-08-20T05:08:29.507Z,62.96
2022-08-20T05:09:29.486Z,62.44
2022-08-20T05:10:29.516Z,62.67
2022-08-20T05:11:33.549Z,62.86
2022-08-20T05:12:29.449Z,63.19
2022-08-20T05:13:29.445Z,62.53
2022-08-20T05:14:29.447Z,62.16
2022-08-20T05:15:29.401Z,62.07
2022-08-20T05:16:29.399Z,61.57
2022-08-20T05:17:29.364Z,60.94
2022-08-20T05:18:29.357Z,61.12
2022-08-20T05:19:29.368Z,61.16
2022-08-20T05:20:29.366Z,62.02
2022-08-20T05:21:29.336Z,63.38
2022-08-20T05:22:30.745Z,64.76
2022-08-20T05:23:29.302Z,65.31
2022-08-20T05:24:29.282Z,66.29
2022-08-20T05:25:29.279Z,65.78
2022-08-20T05:26:29.277Z,65.93
2022-08-20T05:27:29.258Z,66.14
2022-08-20T05:28:29.227Z,65.83
2022-08-20T05:29:29.226Z,66.14
2022-08-20T05:30:29.223Z,66.19
2022-08-20T05:31:31.019Z,67.04
2022-08-20T05:32:29.202Z,68.24
2022-08-20T05:33:29.158Z,69.26
2022-08-20T05:34:29.150Z,71.69
2022-08-20T05:35:29.127Z,73.19
2022-08-20T05:36:29.150Z,71.81
2022-08-20T05:37:29.131Z,71.99
2022-08-20T05:38:29.124Z,72.68
2022-08-20T05:39:29.115Z,73.77
2022-08-20T05:40:29.100Z,75.36
2022-08-20T05:41:30.222Z,75.57
2022-08-20T05:42:29.076Z,76.67
2022-08-20T05:43:29.069Z,78.62
2022-08-20T05:44:29.034Z,81.92
2022-08-20T05:45:29.017Z,83.73
2022-08-20T05:46:28.986Z,84.15
2022-08-20T05:47:28.972Z,83.98
2022-08-20T05:48:28.961Z,83.31
2022-08-20T05:49:28.982Z,84.66
2022-08-20T05:50:28.935Z,85.17
2022-08-20T05:51:28.915Z,85.96
2022-08-20T05:52:28.966Z,86.94
2022-08-20T05:53:28.916Z,87.95
2022-08-20T05:54:28.916Z,90.22
2022-08-20T05:55:28.871Z,93.55
2022-08-20T05:56:28.856Z,95.25
2022-08-20T05:57:28.856Z,94.10
2022-08-20T05:58:28.848Z,97.72
2022-08-20T05:59:28.892Z,99.94
2022-08-20T06:00:28.832Z,100.96
2022-08-20T06:01:28.896Z,99.11
2022-08-20T06:02:28.796Z,99.00
2022-08-20T06:03:28.942Z,100.30
2022-08-20T06:04:28.892Z,103.46
2022-08-20T06:05:28.792Z,105.48
2022-08-20T06:06:44.982Z,105.01
2022-08-20T06:07:28.713Z,105.35
2022-08-20T06:08:28.707Z,105.35
2022-08-20T06:09:31.705Z,103.08
2022-08-20T06:10:28.715Z,100.90
2022-08-20T06:11:28.656Z,99.05
2022-08-20T06:12:28.773Z,98.64
2022-08-20T06:13:28.627Z,102.76
2022-08-20T06:14:28.620Z,106.82
2022-08-20T06:15:28.671Z,107.79
2022-08-20T06:16:29.551Z,108.98
2022-08-20T06:17:28.587Z,105.08
2022-08-20T06:18:28.997Z,103.52
2022-08-20T06:19:32.267Z,101.89
2022-08-20T06:20:28.575Z,99.82
2022-08-20T06:21:28.534Z,99.23
2022-08-20T06:22:28.537Z,97.44
2022-08-20T06:23:28.506Z,96.43
2022-08-20T06:24:28.507Z,99.58
2022-08-20T06:25:28.754Z,100.78
2022-08-20T06:26:30.221Z,99.00
2022-08-20T06:27:28.649Z,96.60
2022-08-20T06:28:28.534Z,94.74
2022-08-20T06:29:28.445Z,95.33
2022-08-20T06:30:28.622Z,94.42
2022-08-20T06:31:28.482Z,93.86
2022-08-20T06:32:32.126Z,92.21
2022-08-20T06:33:28.635Z,91.60
2022-08-20T06:34:30.897Z,92.31
2022-08-20T06:35:28.424Z,93.84
2022-08-20T06:36:28.479Z,97.21
2022-08-20T06:37:31.194Z,98.64
2022-08-20T06:38:28.550Z,98.18
2022-08-20T06:39:28.530Z,97.38
2022-08-20T06:40:28.481Z,99.05
2022-08-20T06:41:36.080Z,100.24
2022-08-20T06:42:28.358Z,100.78
2022-08-20T06:43:28.407Z,102.57
2022-08-20T06:44:28.287Z,100.24
2022-08-20T06:45:28.196Z,100.48
2022-08-20T06:46:28.484Z,103.46
2022-08-20T06:47:28.414Z,106.28
2022-08-20T06:48:28.335Z,108.77
2022-08-20T06:49:28.249Z,111.07
2022-08-20T06:50:28.228Z,112.72
2022-08-20T06:51:28.179Z,113.40
2022-08-20T06:52:51.802Z,113.87
2022-08-20T06:53:28.179Z,114.33
2022-08-20T06:54:29.220Z,112.26
2022-08-20T06:55:28.089Z,110.49
2022-08-20T06:56:28.318Z,111.37
2022-08-20T06:57:28.238Z,111.00
2022-08-20T06:58:37.537Z,110.34
2022-08-20T06:59:28.032Z,111.15
2022-08-20T07:00:28.226Z,110.12
2022-08-20T07:01:28.231Z,110.78
2022-08-20T07:02:29.190Z,112.57
2022-08-20T07:03:28.050Z,117.13
2022-08-20T07:04:28.067Z,116.97
2022-08-20T07:05:27.947Z,115.76
2022-08-20T07:06:27.935Z,115.28
2022-08-20T07:07:28.350Z,117.54
2022-08-20T07:08:28.060Z,120.59
2022-08-20T07:09:28.096Z,121.29
2022-08-20T07:10:28.077Z,120.76
2022-08-20T07:11:28.808Z,120.16
2022-08-20T07:12:27.852Z,118.63
2022-08-20T07:13:27.865Z,115.92
2022-08-20T07:14:27.829Z,114.02
2022-08-20T07:15:27.796Z,110.56
2022-08-20T07:16:27.798Z,108.69
2022-08-20T07:17:27.768Z,108.48
2022-08-20T07:18:28.914Z,106.69
2022-08-20T07:19:27.741Z,106.15
2022-08-20T07:20:27.750Z,105.88
2022-08-20T07:21:27.728Z,104.43
2022-08-20T07:22:27.701Z,103.65
2022-08-20T07:23:27.721Z,101.76
2022-08-20T07:24:33.299Z,99.41
2022-08-20T07:25:27.684Z,97.16
2022-08-20T07:26:27.655Z,99.64
2022-08-20T07:27:27.628Z,102.38
2022-08-20T07:28:27.620Z,102.32
2022-08-20T07:29:27.625Z,103.27
2022-08-20T07:30:27.596Z,101.03
2022-08-20T07:31:27.589Z,98.94
2022-08-20T07:32:28.062Z,97.61
2022-08-20T07:33:28.357Z,96.21
2022-08-20T07:34:27.565Z,94.21
2022-08-20T07:35:27.547Z,94.53
2022-08-20T07:36:27.548Z,95.14
2022-08-20T07:37:27.515Z,94.15
2022-08-20T07:38:27.488Z,95.68
2022-08-20T07:39:28.523Z,94.50
2022-08-20T07:40:27.593Z,92.92
2022-08-20T07:41:27.457Z,90.81
2022-08-20T07:42:27.442Z,89.74
2022-08-20T07:43:27.441Z,89.54
2022-08-20T07:44:30.841Z,90.03
2022-08-20T07:45:27.408Z,90.91
2022-08-20T07:46:31.137Z,90.51
2022-08-20T07:47:27.375Z,91.80
2022-08-20T07:48:28.034Z,93.86
2022-08-20T07:49:27.379Z,92.21
2022-08-20T07:50:27.336Z,92.31
2022-08-20T07:51:27.347Z,92.31
2022-08-20T07:52:27.325Z,92.00
2022-08-20T07:53:28.080Z,91.10
2022-08-20T07:54:27.269Z,91.40
2022-08-20T07:55:27.276Z,92.72
2022-08-20T07:56:28.098Z,92.51
2022-08-20T07:57:27.260Z,94.28
2022-08-20T07:58:27.657Z,94.07
2022-08-20T07:59:27.212Z,93.23
2022-08-20T08:00:27.222Z,91.20
2022-08-20T08:01:27.284Z,91.70
2022-08-20T08:02:27.214Z,93.86
2022-08-20T08:03:40.532Z,94.10
2022-08-20T08:04:27.166Z,95.12
2022-08-20T08:05:27.154Z,98.59
2022-08-20T08:06:29.469Z,98.36
2022-08-20T08:07:27.139Z,103.27
2022-08-20T08:08:27.124Z,105.15
2022-08-20T08:09:27.118Z,106.01
2022-08-20T08:10:27.083Z,107.58
2022-08-20T08:11:27.070Z,109.69
2022-08-20T08:12:27.063Z,110.85
2022-08-20T08:13:27.034Z,110.63
2022-08-20T08:14:27.082Z,109.76
2022-08-20T08:15:27.065Z,109.33
2022-08-20T08:16:27.035Z,109.69
2022-08-20T08:17:26.999Z,108.98
2022-08-20T08:18:31.375Z,106.75
2022-08-20T08:19:26.956Z,106.55
2022-08-20T08:20:26.954Z,111.74
2022-08-20T08:21:26.908Z,111.15
2022-08-20T08:22:26.934Z,110.27
2022-08-20T08:23:32.243Z,108.62
2022-08-20T08:24:28.576Z,109.55
2022-08-20T08:25:26.867Z,110.71
2022-08-20T08:26:26.845Z,111.44
2022-08-20T08:27:26.846Z,112.79
2022-08-20T08:28:26.845Z,112.42
2022-08-20T08:29:26.817Z,115.04
2022-08-20T08:30:26.832Z,119.81
2022-08-20T08:31:26.798Z,126.51
2022-08-20T08:32:26.782Z,127.09
2022-08-20T08:33:26.777Z,127.96
2022-08-20T08:34:26.741Z,130.15
2022-08-20T08:35:26.761Z,130.45
2022-08-20T08:36:26.726Z,127.96
2022-08-20T08:37:30.505Z,128.65
2022-08-20T08:38:26.687Z,131.27
2022-08-20T08:39:26.685Z,130.05
2022-08-20T08:40:26.687Z,132.62
2022-08-20T08:41:26.678Z,134.00
2022-08-20T08:42:26.661Z,131.79
2022-08-20T08:43:26.614Z,129.54
2022-08-20T08:44:26.646Z,133.04
2022-08-20T08:45:26.613Z,131.99
2022-08-20T08:46:26.605Z,131.89
2022-08-20T08:47:26.610Z,133.89
2022-08-20T08:48:26.589Z,131.89
2022-08-20T08:49:37.320Z,136.29
2022-08-20T08:50:50.044Z,139.93
2022-08-20T08:51:26.585Z,139.82
2022-08-20T08:52:26.523Z,143.16
2022-08-20T08:53:26.520Z,147.32
2022-08-20T08:54:26.511Z,149.29
2022-08-20T08:55:26.491Z,147.45
2022-08-20T08:56:26.448Z,146.54
2022-08-20T08:57:26.477Z,143.53
2022-08-20T08:58:26.426Z,140.28
2022-08-20T08:59:26.449Z,138.89
2022-08-20T09:00:26.467Z,137.86
2022-08-20T09:01:55.020Z,136.96
2022-08-20T09:02:26.471Z,136.73
2022-08-20T09:03:26.381Z,140.17
2022-08-20T09:04:26.357Z,136.40
2022-08-20T09:05:26.372Z,131.99
2022-08-20T09:06:26.322Z,128.85
2022-08-20T09:07:26.315Z,126.80
2022-08-20T09:08:26.313Z,123.07
2022-08-20T09:09:26.330Z,124.35
2022-08-20T09:10:26.312Z,124.72
2022-08-20T09:11:26.283Z,124.35
2022-08-20T09:12:26.228Z,120.07
2022-08-20T09:13:26.280Z,115.28
2022-08-20T09:14:26.220Z,112.19
2022-08-20T09:15:26.195Z,113.48
2022-08-20T09:16:26.218Z,115.92
2022-08-20T09:17:26.170Z,116.24
2022-08-20T09:18:26.162Z,116.72
2022-08-20T09:19:26.170Z,115.76
2022-08-20T09:20:27.245Z,113.48
2022-08-20T09:21:26.129Z,112.11
2022-08-20T09:22:26.097Z,114.96
2022-08-20T09:23:26.105Z,116.97
2022-08-20T09:24:26.098Z,120.16
2022-08-20T09:25:26.065Z,122.35
2022-08-20T09:26:29.168Z,129.14
2022-08-20T09:27:26.034Z,130.55
2022-08-20T09:28:26.019Z,139.24
2022-08-20T09:29:26.054Z,143.90
2022-08-20T09:30:26.007Z,145.78
2022-08-20T09:31:26.010Z,149.55
2022-08-20T09:32:26.176Z,146.16
2022-08-20T09:33:25.960Z,146.80
2022-08-20T09:34:25.963Z,150.22
2022-08-20T09:35:25.943Z,156.10
2022-08-20T09:36:32.666Z,153.95
2022-08-20T09:37:25.923Z,153.25
2022-08-20T09:38:25.894Z,147.71
2022-08-20T09:39:25.922Z,143.78
2022-08-20T09:40:25.884Z,143.41
2022-08-20T09:41:25.866Z,143.53
2022-08-20T09:42:25.867Z,147.97
2022-08-20T09:43:25.819Z,158.77
2022-08-20T09:44:25.844Z,166.34
2022-08-20T09:45:25.817Z,173.93
2022-08-20T09:46:27.144Z,174.84
2022-08-20T09:47:25.761Z,179.14
2022-08-20T09:48:32.056Z,182.07
2022-08-20T09:49:25.760Z,187.17
2022-08-20T09:50:25.725Z,193.44
2022-08-20T09:51:25.725Z,194.12
2022-08-20T09:52:25.737Z,195.74
2022-08-20T09:53:25.684Z,196.79
2022-08-20T09:54:25.680Z,199.41
2022-08-20T09:55:25.667Z,196.09
2022-08-20T09:56:25.660Z,195.39
2022-08-20T09:57:25.657Z,191.97
2022-08-20T09:58:25.629Z,190.53
2022-08-20T09:59:25.619Z,186.52
2022-08-20T10:00:25.595Z,190.20
2022-08-20T10:01:25.681Z,197.38
2022-08-20T10:02:25.597Z,199.89
2022-08-20T10:03:25.545Z,205.51
2022-08-20T10:04:25.576Z,213.78
2022-08-20T10:05:25.564Z,214.33
2022-08-20T10:06:25.524Z,220.65
2022-08-20T10:07:25.533Z,228.93
2022-08-20T10:08:25.534Z,235.99
2022-08-20T10:09:25.504Z,237.69
2022-08-20T10:10:25.493Z,235.31
2022-08-20T10:11:25.521Z,231.67
2022-08-20T10:12:25.485Z,237.69
2022-08-20T10:13:25.463Z,238.55
2022-08-20T10:14:25.438Z,248.64
2022-08-20T10:15:25.407Z,255.58
2022-08-20T10:16:25.401Z,258.59
2022-08-20T10:17:25.381Z,257.58
2022-08-20T10:18:25.353Z,260.02
2022-08-20T10:19:25.371Z,265.26
2022-08-20T10:20:25.329Z,264.41
2022-08-20T10:21:25.332Z,270.26
2022-08-20T10:22:25.294Z,275.92
2022-08-20T10:23:25.281Z,280.39
2022-08-20T10:24:25.290Z,284.26
2022-08-20T10:25:25.283Z,278.26
2022-08-20T10:26:25.415Z,282.07
2022-08-20T10:27:25.251Z,282.55
2022-08-20T10:28:25.213Z,291.30
2022-08-20T10:29:25.214Z,285.99
2022-08-20T10:30:25.218Z,278.96
2022-08-20T10:31:25.188Z,283.04
2022-08-20T10:32:25.199Z,291.56
2022-08-20T10:33:25.155Z,294.42
2022-08-20T10:34:25.185Z,293.38
2022-08-20T10:35:25.139Z,288.24
2022-08-20T10:36:25.107Z,289.51
2022-08-20T10:37:25.141Z,302.54
2022-08-20T10:38:25.081Z,306.48
2022-08-20T10:39:25.074Z,303.93
2022-08-20T10:40:25.119Z,303.10
2022-08-20T10:41:25.077Z,303.65
2022-08-20T10:42:25.042Z,306.77
2022-08-20T10:43:25.032Z,318.64
2022-08-20T10:44:25.003Z,330.80
2022-08-20T10:45:24.996Z,343.93
2022-08-20T10:46:25.014Z,347.56
2022-08-20T10:47:25.018Z,358.14
2022-08-20T10:48:24.973Z,366.51
2022-08-20T10:49:24.977Z,373.58
2022-08-20T10:50:24.947Z,371.47
2022-08-20T10:51:32.716Z,374.85
2022-08-20T10:52:24.944Z,386.90
2022-08-20T10:53:24.923Z,403.94
2022-08-20T10:54:24.903Z,411.64
2022-08-20T10:55:24.879Z,412.91
2022-08-20T10:56:24.892Z,423.09
2022-08-20T10:57:24.832Z,431.27
2022-08-20T10:58:24.840Z,428.51
2022-08-20T10:59:24.843Z,427.69
2022-08-20T11:00:24.820Z,423.36
2022-08-20T11:01:31.545Z,415.22
2022-08-20T11:02:24.811Z,432.38
2022-08-20T11:03:24.778Z,433.22
2022-08-20T11:04:24.775Z,440.93
2022-08-20T11:05:24.733Z,435.76
2022-08-20T11:06:24.733Z,445.63
2022-08-20T11:07:50.797Z,448.01
2022-08-20T11:08:34.166Z,461.29
2022-08-20T11:09:24.701Z,474.70
2022-08-20T11:10:24.674Z,482.92
2022-08-20T11:11:24.685Z,474.37
2022-08-20T11:12:24.637Z,476.73
2022-08-20T11:13:24.671Z,488.21
2022-08-20T11:14:24.603Z,498.76
2022-08-20T11:15:24.612Z,511.72
2022-08-20T11:16:24.602Z,522.91
2022-08-20T11:17:24.588Z,528.70
2022-08-20T11:18:24.570Z,539.35
2022-08-20T11:19:24.551Z,564.36
2022-08-20T11:20:24.550Z,560.58
2022-08-20T11:21:24.516Z,550.44
2022-08-20T11:22:24.517Z,560.11
2022-08-20T11:23:24.508Z,574.04
2022-08-20T11:24:24.474Z,581.52
2022-08-20T11:25:24.473Z,590.76
2022-08-20T11:26:24.494Z,586.62
2022-08-20T11:27:24.435Z,582.53
2022-08-20T11:28:31.355Z,577.01
2022-08-20T11:29:24.470Z,576.02
2022-08-20T11:30:24.415Z,572.08
2022-08-20T11:31:24.413Z,565.79
2022-08-20T11:32:24.387Z,571.10
2022-08-20T11:33:24.406Z,555.92
2022-08-20T11:34:24.359Z,539.78
2022-08-20T11:35:42.188Z,545.06
2022-08-20T11:36:24.323Z,555.00
2022-08-20T11:37:24.301Z,560.58
2022-08-20T11:38:24.312Z,566.27
2022-08-20T11:39:24.370Z,566.75
2022-08-20T11:40:24.336Z,581.02
2022-08-20T11:41:24.285Z,576.02
2022-08-20T11:42:24.269Z,583.04
2022-08-20T11:43:24.250Z,596.55
2022-08-20T11:44:24.213Z,604.63
2022-08-20T11:45:24.207Z,616.33
2022-08-20T11:46:28.003Z,616.33
2022-08-20T11:47:24.174Z,619.18
2022-08-20T11:48:24.152Z,612.94
2022-08-20T11:49:24.182Z,618.03
2022-08-20T11:50:24.126Z,624.96
2022-08-20T11:51:24.157Z,626.13
2022-08-20T11:52:24.095Z,621.48
2022-08-20T11:53:24.112Z,604.63
2022-08-20T11:54:24.098Z,608.48
2022-08-20T11:55:29.528Z,606.83
2022-08-20T11:56:24.053Z,596.02
2022-08-20T11:57:24.041Z,613.50
2022-08-20T11:58:24.032Z,605.73
2022-08-20T11:59:24.091Z,589.72
2022-08-20T12:00:33.226Z,584.06
2022-08-20T12:01:24.021Z,593.38
2022-08-20T12:02:24.036Z,601.92
2022-08-20T12:03:24.031Z,619.75
2022-08-20T12:04:25.230Z,635.64
2022-08-20T12:05:23.926Z,653.01
2022-08-20T12:06:23.964Z,655.56
2022-08-20T12:07:23.921Z,640.51
2022-08-20T12:08:27.509Z,620.90
2022-08-20T12:09:24.877Z,620.90
2022-08-20T12:10:23.888Z,623.79
2022-08-20T12:11:23.879Z,619.75
2022-08-20T12:12:23.894Z,638.67
2022-08-20T12:13:28.572Z,653.64
2022-08-20T12:14:23.807Z,656.85
2022-08-20T12:15:23.838Z,660.09
2022-08-20T12:16:23.796Z,672.69
2022-08-20T12:17:23.773Z,671.34
2022-08-20T12:18:23.791Z,676.09
2022-08-20T12:19:23.743Z,666.66
2022-08-20T12:20:23.746Z,665.34
2022-08-20T12:21:23.751Z,682.29
2022-08-20T12:22:24.956Z,689.32
2022-08-20T12:23:23.710Z,687.90
2022-08-20T12:24:23.750Z,667.33
2022-08-20T12:25:23.663Z,660.09
2022-08-20T12:26:23.696Z,658.14
2022-08-20T12:27:23.647Z,651.73
2022-08-20T12:28:25.913Z,662.70
2022-08-20T12:29:23.613Z,654.28
2022-08-20T12:30:23.628Z,629.07
2022-08-20T12:31:23.614Z,634.44
2022-08-20T12:32:23.581Z,642.97
2022-08-20T12:33:23.564Z,646.70
2022-08-20T12:34:23.583Z,644.83
2022-08-20T12:35:23.551Z,649.84
2022-08-20T12:36:23.531Z,671.34
2022-08-20T12:37:23.521Z,680.91
2022-08-20T12:38:23.509Z,680.21
2022-08-20T12:39:23.498Z,678.83
2022-08-20T12:40:31.942Z,664.02
2022-08-20T12:41:23.513Z,650.47